createdAt,value
2016-10-20T00:00:34.902Z,24.21
2016-10-20T00:01:34.924Z,24.2
2016-10-20T00:02:34.956Z,24.22
2016-10-20T00:03:34.287Z,24.21
2016-10-20T00:04:34.921Z,24.22
2016-10-20T00:05:34.614Z,24.27
2016-10-20T00:06:34.621Z,24.22
2016-10-20T00:07:34.314Z,24.27
2016-10-20T00:08:34.684Z,24.34
2016-10-20T00:09:34.641Z,24.34
2016-10-20T00:10:34.696Z,24.22
2016-10-20T00:11:34.967Z,24.3
2016-10-20T00:12:34.700Z,24.28
2016-10-20T00:13:34.980Z,24.28
2016-10-20T00:14:34.673Z,24.28
2016-10-20T00:15:35.044Z,24.34
2016-10-20T00:16:35.002Z,24.31
2016-10-20T00:17:34.692Z,24.31
2016-10-20T00:18:34.704Z,24.22
2016-10-20T00:19:35.110Z,24.22
2016-10-20T00:20:34.405Z,24.22
2016-10-20T00:21:34.721Z,24.25
2016-10-20T00:22:34.419Z,24.24
2016-10-20T00:23:35.099Z,24.2
2016-10-20T00:24:34.741Z,24.25
2016-10-20T00:25:35.059Z,24.22
2016-10-20T00:26:35.504Z,24.15
2016-10-20T00:27:35.078Z,24.22
2016-10-20T00:28:34.769Z,24.2
2016-10-20T00:29:34.468Z,24.18
2016-10-20T00:30:34.784Z,24.16
2016-10-20T00:31:34.876Z,24.16
2016-10-20T00:32:34.533Z,24.16
2016-10-20T00:33:34.805Z,24.13
2016-10-20T00:34:34.816Z,24.13
2016-10-20T00:35:35.134Z,24.12
2016-10-20T00:36:34.825Z,24.21
2016-10-20T00:37:35.196Z,24.13
2016-10-20T00:38:34.529Z,24.22
2016-10-20T00:39:34.850Z,24.12
2016-10-20T00:40:34.543Z,24.06
2016-10-20T00:41:34.865Z,24.18
2016-10-20T00:42:35.228Z,24.1
2016-10-20T00:43:34.620Z,24.15
2016-10-20T00:44:35.194Z,24.21
2016-10-20T00:45:34.886Z,24.2
2016-10-20T00:46:35.211Z,24.25
2016-10-20T00:47:34.954Z,24.2
2016-10-20T00:48:34.910Z,24.2
2016-10-20T00:49:34.601Z,24.15
2016-10-20T00:50:34.968Z,24.2
2016-10-20T00:51:35.244Z,24.21
2016-10-20T00:52:34.673Z,24.21
2016-10-20T00:53:34.943Z,24.21
2016-10-20T00:54:35.000Z,24.28
2016-10-20T00:55:35.309Z,24.22
2016-10-20T00:56:35.012Z,24.28
2016-10-20T00:57:34.973Z,24.24
2016-10-20T00:58:35.389Z,24.13
2016-10-20T00:59:35.244Z,24.16
2016-10-20T01:00:34.992Z,24.18
2016-10-20T01:01:35.312Z,24.27
2016-10-20T01:02:34.742Z,24.16
2016-10-20T01:03:35.013Z,24.1
2016-10-20T01:04:35.331Z,24.1
2016-10-20T01:05:34.724Z,24.12
2016-10-20T01:06:35.034Z,24.15
2016-10-20T01:07:34.775Z,24.06
2016-10-20T01:08:35.399Z,24.18
2016-10-20T01:09:35.364Z,24.21
2016-10-20T01:10:35.062Z,24.27
2016-10-20T01:11:34.753Z,24.22
2016-10-20T01:12:35.075Z,24.2
2016-10-20T01:13:35.083Z,24.15
2016-10-20T01:14:35.450Z,24.27
2016-10-20T01:15:35.095Z,24.27
2016-10-20T01:16:35.101Z,24.24
2016-10-20T01:17:35.420Z,24.24
2016-10-20T01:18:35.115Z,24.25
2016-10-20T01:19:35.448Z,24.22
2016-10-20T01:20:35.181Z,24.27
2016-10-20T01:21:35.499Z,24.22
2016-10-20T01:22:35.197Z,24.22
2016-10-20T01:23:35.716Z,24.21
2016-10-20T01:24:35.206Z,24.22
2016-10-20T01:25:35.164Z,24.27
2016-10-20T01:26:35.483Z,24.22
2016-10-20T01:27:35.502Z,24.25
2016-10-20T01:28:35.187Z,24.28
2016-10-20T01:29:35.539Z,24.34
2016-10-20T01:30:35.192Z,24.3
2016-10-20T01:31:34.888Z,24.27
2016-10-20T01:32:35.576Z,24.24
2016-10-20T01:33:35.265Z,24.3
2016-10-20T01:34:35.594Z,24.28
2016-10-20T01:35:35.230Z,24.34
2016-10-20T01:36:35.243Z,24.25
2016-10-20T01:37:34.932Z,24.32
2016-10-20T01:38:35.251Z,24.21
2016-10-20T01:39:35.258Z,24.3
2016-10-20T01:40:35.454Z,24.34
2016-10-20T01:41:35.270Z,24.2
2016-10-20T01:42:35.381Z,24.31
2016-10-20T01:43:35.285Z,24.31
2016-10-20T01:44:35.616Z,24.21
2016-10-20T01:45:35.302Z,24.25
2016-10-20T01:46:35.355Z,24.22
2016-10-20T01:47:35.624Z,24.27
2016-10-20T01:48:35.632Z,24.25
2016-10-20T01:49:35.653Z,24.27
2016-10-20T01:50:35.644Z,24.3
2016-10-20T01:51:35.390Z,24.25
2016-10-20T01:52:35.346Z,24.3
2016-10-20T01:53:35.413Z,24.22
2016-10-20T01:54:35.048Z,24.25
2016-10-20T01:55:35.370Z,24.22
2016-10-20T01:56:35.059Z,24.24
2016-10-20T01:57:35.732Z,24.25
2016-10-20T01:58:35.437Z,24.27
2016-10-20T01:59:35.392Z,24.31
2016-10-20T02:00:35.082Z,24.3
2016-10-20T02:01:35.408Z,24.21
2016-10-20T02:02:35.727Z,24.21
2016-10-20T02:03:35.425Z,24.22
2016-10-20T02:04:35.530Z,24.28
2016-10-20T02:05:35.432Z,24.21
2016-10-20T02:06:35.491Z,24.21
2016-10-20T02:07:35.806Z,24.25
2016-10-20T02:08:35.136Z,24.2
2016-10-20T02:09:35.498Z,24.18
2016-10-20T02:10:35.506Z,24.24
2016-10-20T02:11:35.785Z,24.28
2016-10-20T02:12:35.477Z,24.22
2016-10-20T02:13:35.570Z,24.24
2016-10-20T02:14:35.591Z,24.21
2016-10-20T02:15:35.810Z,24.22
2016-10-20T02:16:35.198Z,24.16
2016-10-20T02:17:35.199Z,24.2
2016-10-20T02:18:35.523Z,24.15
2016-10-20T02:19:35.525Z,24.18
2016-10-20T02:20:35.536Z,24.22
2016-10-20T02:21:35.282Z,24.2
2016-10-20T02:22:35.647Z,24.22
2016-10-20T02:23:35.559Z,24.18
2016-10-20T02:24:35.659Z,24.16
2016-10-20T02:25:35.895Z,24.15
2016-10-20T02:26:35.575Z,24.22
2016-10-20T02:27:35.268Z,24.24
2016-10-20T02:28:35.951Z,24.22
2016-10-20T02:29:35.670Z,24.27
2016-10-20T02:30:35.607Z,24.24
2016-10-20T02:31:35.295Z,24.25
2016-10-20T02:32:35.307Z,24.2
2016-10-20T02:33:35.621Z,24.15
2016-10-20T02:34:36.290Z,24.15
2016-10-20T02:35:35.685Z,24.22
2016-10-20T02:36:35.956Z,24.24
2016-10-20T02:37:35.980Z,24.22
2016-10-20T02:38:35.969Z,24.24
2016-10-20T02:39:35.440Z,24.24
2016-10-20T02:40:35.357Z,24.25
2016-10-20T02:41:35.683Z,24.25
2016-10-20T02:42:35.685Z,24.2
2016-10-20T02:43:35.383Z,24.24
2016-10-20T02:44:36.009Z,24.21
2016-10-20T02:45:35.390Z,24.18
2016-10-20T02:46:35.763Z,24.16
2016-10-20T02:47:35.404Z,24.22
2016-10-20T02:48:35.722Z,24.21
2016-10-20T02:49:35.770Z,24.16
2016-10-20T02:50:35.478Z,24.13
2016-10-20T02:51:35.480Z,24.21
2016-10-20T02:52:35.753Z,24.24
2016-10-20T02:53:35.762Z,24.18
2016-10-20T02:54:35.817Z,24.2
2016-10-20T02:55:35.776Z,24.24
2016-10-20T02:56:35.831Z,24.18
2016-10-20T02:57:36.152Z,24.15
2016-10-20T02:58:36.108Z,24.09
2016-10-20T02:59:36.118Z,24.21
2016-10-20T03:00:36.168Z,24.2
2016-10-20T03:01:36.130Z,24.18
2016-10-20T03:02:35.511Z,24.13
2016-10-20T03:03:36.187Z,24.21
2016-10-20T03:04:35.836Z,24.2
2016-10-20T03:05:36.156Z,24.21
2016-10-20T03:06:36.165Z,24.18
2016-10-20T03:07:35.854Z,24.22
2016-10-20T03:08:35.862Z,24.2
2016-10-20T03:09:35.920Z,24.21
2016-10-20T03:10:35.915Z,24.24
2016-10-20T03:11:36.205Z,24.22
2016-10-20T03:12:35.888Z,24.2
2016-10-20T03:13:36.212Z,24.21
2016-10-20T03:14:35.951Z,24.21
2016-10-20T03:15:35.909Z,24.22
2016-10-20T03:16:35.600Z,24.24
2016-10-20T03:17:35.615Z,24.15
2016-10-20T03:18:35.619Z,24.15
2016-10-20T03:19:36.251Z,24.2
2016-10-20T03:20:35.941Z,24.13
2016-10-20T03:21:35.639Z,24.2
2016-10-20T03:22:35.960Z,24.15
2016-10-20T03:23:35.960Z,24.16
2016-10-20T03:24:35.971Z,24.25
2016-10-20T03:25:35.989Z,24.16
2016-10-20T03:26:35.981Z,24.15
2016-10-20T03:27:36.040Z,24.22
2016-10-20T03:28:36.406Z,24.21
2016-10-20T03:29:36.004Z,24.24
2016-10-20T03:30:36.371Z,24.16
2016-10-20T03:31:36.019Z,24.12
2016-10-20T03:32:36.334Z,24.09
2016-10-20T03:33:36.031Z,24.13
2016-10-20T03:34:36.400Z,24.2
2016-10-20T03:35:36.041Z,24.24
2016-10-20T03:36:36.086Z,24.22
2016-10-20T03:37:36.054Z,24.13
2016-10-20T03:38:36.063Z,24.16
2016-10-20T03:39:36.069Z,24.16
2016-10-20T03:40:36.114Z,24.13
2016-10-20T03:41:36.437Z,24.16
2016-10-20T03:42:36.088Z,24.22
2016-10-20T03:43:36.409Z,24.2
2016-10-20T03:44:35.793Z,24.27
2016-10-20T03:45:36.123Z,24.12
2016-10-20T03:46:36.483Z,24.21
2016-10-20T03:47:36.120Z,24.16
2016-10-20T03:48:36.334Z,24.21
2016-10-20T03:49:36.140Z,24.16
2016-10-20T03:50:36.458Z,24.21
2016-10-20T03:51:35.839Z,24.15
2016-10-20T03:52:36.523Z,24.13
2016-10-20T03:53:36.522Z,24.21
2016-10-20T03:54:36.485Z,24.15
2016-10-20T03:55:36.176Z,24.18
2016-10-20T03:56:36.223Z,24.2
2016-10-20T03:57:36.188Z,24.16
2016-10-20T03:58:36.561Z,24.13
2016-10-20T03:59:35.893Z,24.13
2016-10-20T04:00:36.572Z,24.13
2016-10-20T04:01:36.533Z,24.18
2016-10-20T04:02:36.280Z,24.08
2016-10-20T04:03:36.282Z,24.15
2016-10-20T04:04:36.238Z,24.12
2016-10-20T04:05:36.556Z,24.12
2016-10-20T04:06:36.254Z,24.16
2016-10-20T04:07:36.262Z,24.12
2016-10-20T04:08:36.311Z,24.05
2016-10-20T04:09:36.585Z,24.1
2016-10-20T04:10:36.330Z,24.09
2016-10-20T04:11:36.601Z,24.13
2016-10-20T04:12:36.336Z,24.06
2016-10-20T04:13:36.715Z,24.09
2016-10-20T04:14:36.623Z,24.15
2016-10-20T04:15:36.413Z,24.1
2016-10-20T04:16:36.009Z,24.15
2016-10-20T04:17:36.341Z,24.15
2016-10-20T04:18:36.701Z,24.21
2016-10-20T04:19:36.344Z,24.06
2016-10-20T04:20:36.352Z,24.13
2016-10-20T04:21:36.718Z,24.13
2016-10-20T04:22:36.674Z,24.15
2016-10-20T04:23:36.679Z,24.1
2016-10-20T04:24:36.374Z,24.12
2016-10-20T04:25:36.069Z,24.12
2016-10-20T04:26:36.390Z,24.06
2016-10-20T04:27:36.395Z,24.05
2016-10-20T04:28:36.401Z,24.08
2016-10-20T04:29:36.790Z,24.06
2016-10-20T04:30:36.463Z,24.08
2016-10-20T04:31:36.737Z,24.08
2016-10-20T04:32:36.428Z,24.08
2016-10-20T04:33:36.483Z,24.09
2016-10-20T04:34:36.439Z,24.05
2016-10-20T04:35:36.454Z,24.16
2016-10-20T04:36:36.765Z,24.1
2016-10-20T04:37:36.202Z,24.13
2016-10-20T04:38:36.470Z,24.13
2016-10-20T04:39:36.526Z,24.08
2016-10-20T04:40:36.484Z,24.12
2016-10-20T04:41:36.853Z,24.13
2016-10-20T04:42:36.807Z,24.13
2016-10-20T04:43:36.279Z,24.1
2016-10-20T04:44:36.826Z,24.09
2016-10-20T04:45:36.515Z,24.08
2016-10-20T04:46:36.884Z,24
2016-10-20T04:47:36.841Z,24.06
2016-10-20T04:48:36.535Z,24.06
2016-10-20T04:49:36.544Z,23.95
2016-10-20T04:50:36.858Z,24.16
2016-10-20T04:51:36.553Z,24.1
2016-10-20T04:52:36.597Z,24.12
2016-10-20T04:53:36.931Z,24.15
2016-10-20T04:54:36.887Z,24.09
2016-10-20T04:55:36.896Z,24.03
2016-10-20T04:56:36.278Z,24.13
2016-10-20T04:57:36.906Z,24.12
2016-10-20T04:58:36.340Z,24.13
2016-10-20T04:59:36.611Z,24.13
2016-10-20T05:00:36.614Z,24.1
2016-10-20T05:01:36.986Z,24.18
2016-10-20T05:02:36.626Z,24.13
2016-10-20T05:03:36.682Z,24.1
2016-10-20T05:04:36.954Z,24.1
2016-10-20T05:05:36.649Z,24.12
2016-10-20T05:06:36.974Z,24.09
2016-10-20T05:07:36.714Z,24.12
2016-10-20T05:08:36.669Z,24.21
2016-10-20T05:09:36.410Z,24.12
2016-10-20T05:10:37.193Z,24.13
2016-10-20T05:11:36.376Z,24.15
2016-10-20T05:12:37.008Z,24.13
2016-10-20T05:13:37.073Z,24.09
2016-10-20T05:14:36.708Z,24.13
2016-10-20T05:15:36.726Z,24.13
2016-10-20T05:16:36.721Z,24.21
2016-10-20T05:17:36.778Z,24.15
2016-10-20T05:18:36.421Z,24.18
2016-10-20T05:19:36.743Z,24.22
2016-10-20T05:20:36.798Z,24.2
2016-10-20T05:21:37.069Z,24.15
2016-10-20T05:22:37.125Z,24.21
2016-10-20T05:23:36.770Z,24.1
2016-10-20T05:24:37.090Z,24.13
2016-10-20T05:25:36.782Z,24.1
2016-10-20T05:26:36.529Z,24.15
2016-10-20T05:27:37.110Z,24.15
2016-10-20T05:28:36.541Z,24.21
2016-10-20T05:29:36.806Z,24.13
2016-10-20T05:30:36.815Z,24.16
2016-10-20T05:31:37.141Z,24.18
2016-10-20T05:32:36.833Z,24.12
2016-10-20T05:33:36.895Z,24.2
2016-10-20T05:34:37.159Z,24.16
2016-10-20T05:35:36.536Z,24.16
2016-10-20T05:36:36.876Z,24.08
2016-10-20T05:37:36.553Z,24.15
2016-10-20T05:38:36.920Z,24.21
2016-10-20T05:39:36.879Z,24.1
2016-10-20T05:40:37.195Z,24.16
2016-10-20T05:41:36.892Z,24.18
2016-10-20T05:42:36.896Z,24.12
2016-10-20T05:43:36.956Z,24.13
2016-10-20T05:44:36.602Z,24.1
2016-10-20T05:45:36.607Z,24.1
2016-10-20T05:46:37.024Z,24.15
2016-10-20T05:47:37.344Z,24.09
2016-10-20T05:48:36.941Z,24.06
2016-10-20T05:49:36.945Z,24.15
2016-10-20T05:50:36.674Z,24.1
2016-10-20T05:51:36.648Z,24.05
2016-10-20T05:52:36.702Z,24.02
2016-10-20T05:53:37.284Z,23.97
2016-10-20T05:54:36.663Z,23.97
2016-10-20T05:55:37.352Z,23.98
2016-10-20T05:56:36.727Z,23.97
2016-10-20T05:57:37.310Z,24
2016-10-20T05:58:37.093Z,24
2016-10-20T05:59:37.013Z,24.03
2016-10-20T06:00:37.120Z,24.08
2016-10-20T06:01:37.338Z,24.03
2016-10-20T06:02:36.718Z,24
2016-10-20T06:03:37.398Z,24
2016-10-20T06:04:36.785Z,23.97
2016-10-20T06:05:37.362Z,24
2016-10-20T06:06:37.370Z,24
2016-10-20T06:07:36.754Z,24.06
2016-10-20T06:08:36.765Z,23.95
2016-10-20T06:09:37.392Z,24.03
2016-10-20T06:10:37.396Z,24.02
2016-10-20T06:11:37.102Z,24.02
2016-10-20T06:12:37.097Z,24.09
2016-10-20T06:13:37.109Z,24.06
2016-10-20T06:14:36.898Z,24.08
2016-10-20T06:15:37.432Z,24.09
2016-10-20T06:16:37.431Z,24.03
2016-10-20T06:17:37.442Z,24.16
2016-10-20T06:18:37.136Z,24.05
2016-10-20T06:19:37.517Z,24.12
2016-10-20T06:20:37.205Z,24.12
2016-10-20T06:21:37.521Z,24.03
2016-10-20T06:22:36.851Z,23.97
2016-10-20T06:23:37.482Z,24.08
2016-10-20T06:24:37.181Z,24.13
2016-10-20T06:25:37.185Z,24.1
2016-10-20T06:26:37.510Z,24.06
2016-10-20T06:27:37.567Z,24.13
2016-10-20T06:28:37.569Z,24.12
2016-10-20T06:29:37.211Z,24.08
2016-10-20T06:30:37.216Z,24.13
2016-10-20T06:31:37.535Z,24.09
2016-10-20T06:32:37.596Z,24.08
2016-10-20T06:33:37.551Z,24.09
2016-10-20T06:34:37.243Z,24.13
2016-10-20T06:35:37.254Z,24.15
2016-10-20T06:36:37.259Z,24.12
2016-10-20T06:37:37.313Z,24.13
2016-10-20T06:38:37.323Z,24.09
2016-10-20T06:39:37.329Z,24.13
2016-10-20T06:40:37.295Z,24.16
2016-10-20T06:41:37.604Z,24.06
2016-10-20T06:42:37.349Z,24.13
2016-10-20T06:43:37.623Z,24.12
2016-10-20T06:44:37.000Z,24.15
2016-10-20T06:45:37.318Z,24.09
2016-10-20T06:46:37.626Z,24.09
2016-10-20T06:47:37.398Z,24.13
2016-10-20T06:48:37.438Z,24.15
2016-10-20T06:49:37.035Z,24.13
2016-10-20T06:50:37.046Z,24.13
2016-10-20T06:51:37.722Z,24.16
2016-10-20T06:52:37.366Z,24.2
2016-10-20T06:53:37.370Z,24.1
2016-10-20T06:54:37.379Z,24.1
2016-10-20T06:55:37.390Z,24.18
2016-10-20T06:56:37.395Z,24.18
2016-10-20T06:57:37.137Z,24.03
2016-10-20T06:58:37.146Z,24.16
2016-10-20T06:59:37.814Z,24.03
2016-10-20T07:00:37.110Z,24.15
2016-10-20T07:01:37.424Z,24.1
2016-10-20T07:02:37.433Z,24.1
2016-10-20T07:03:37.439Z,24.08
2016-10-20T07:04:37.185Z,24.09
2016-10-20T07:05:37.458Z,24.12
2016-10-20T07:06:37.850Z,24.13
2016-10-20T07:07:37.152Z,24.2
2016-10-20T07:08:37.210Z,24.12
2016-10-20T07:09:37.172Z,24.16
2016-10-20T07:10:37.489Z,24.09
2016-10-20T07:11:37.541Z,24.15
2016-10-20T07:12:37.813Z,24.08
2016-10-20T07:13:37.821Z,24.05
2016-10-20T07:14:37.863Z,24.08
2016-10-20T07:15:37.572Z,24.09
2016-10-20T07:16:37.576Z,24
2016-10-20T07:17:37.904Z,24.09
2016-10-20T07:18:37.852Z,23.91
2016-10-20T07:19:37.908Z,23.91
2016-10-20T07:20:37.867Z,23.88
2016-10-20T07:21:37.561Z,23.9
2016-10-20T07:22:37.614Z,23.88
2016-10-20T07:23:37.885Z,23.91
2016-10-20T07:24:37.367Z,23.93
2016-10-20T07:25:37.898Z,23.8
2016-10-20T07:26:37.594Z,23.83
2016-10-20T07:27:37.386Z,23.94
2016-10-20T07:28:37.917Z,24.03
2016-10-20T07:29:37.616Z,24
2016-10-20T07:30:37.606Z,23.95
2016-10-20T07:31:37.627Z,23.87
2016-10-20T07:32:37.320Z,23.87
2016-10-20T07:33:37.635Z,23.97
2016-10-20T07:34:37.644Z,24.16
2016-10-20T07:35:37.655Z,24.32
2016-10-20T07:36:37.969Z,24.52
2016-10-20T07:37:37.661Z,24.77
2016-10-20T07:38:37.769Z,24.83
2016-10-20T07:39:37.678Z,25.1
2016-10-20T07:40:37.378Z,25.2
2016-10-20T07:41:38.005Z,25.36
2016-10-20T07:42:37.699Z,25.5
2016-10-20T07:43:38.019Z,25.72
2016-10-20T07:44:37.766Z,25.85
2016-10-20T07:45:37.405Z,25.97
2016-10-20T07:46:37.777Z,26.18
2016-10-20T07:47:37.983Z,26.23
2016-10-20T07:48:37.746Z,26.51
2016-10-20T07:49:37.898Z,26.51
2016-10-20T07:50:37.763Z,26.55
2016-10-20T07:51:38.071Z,26.66
2016-10-20T07:52:38.080Z,26.8
2016-10-20T07:53:37.463Z,26.85
2016-10-20T07:54:37.896Z,26.89
2016-10-20T07:55:37.480Z,26.94
2016-10-20T07:56:37.845Z,27.03
2016-10-20T07:57:37.492Z,27.03
2016-10-20T07:58:37.806Z,27.07
2016-10-20T07:59:37.816Z,27.18
2016-10-20T08:00:37.823Z,27.13
2016-10-20T08:01:38.148Z,27.06
2016-10-20T08:02:37.885Z,27.14
2016-10-20T08:03:37.896Z,27.13
2016-10-20T08:04:38.163Z,27.13
2016-10-20T08:05:38.168Z,27.21
2016-10-20T08:06:37.917Z,27.19
2016-10-20T08:07:38.186Z,27.31
2016-10-20T08:08:37.885Z,27.32
2016-10-20T08:09:37.883Z,27.39
2016-10-20T08:10:37.893Z,27.25
2016-10-20T08:11:37.899Z,27.21
2016-10-20T08:12:37.596Z,27.28
2016-10-20T08:13:37.965Z,27.43
2016-10-20T08:14:37.974Z,27.39
2016-10-20T08:15:37.954Z,27.4
2016-10-20T08:16:37.941Z,27.36
2016-10-20T08:17:37.630Z,27.32
2016-10-20T08:18:38.003Z,27.37
2016-10-20T08:19:37.644Z,27.41
2016-10-20T08:20:37.968Z,27.36
2016-10-20T08:21:38.335Z,27.32
2016-10-20T08:22:37.979Z,27.39
2016-10-20T08:23:37.676Z,27.31
2016-10-20T08:24:37.992Z,27.5
2016-10-20T08:25:38.351Z,27.49
2016-10-20T08:26:38.324Z,27.54
2016-10-20T08:27:38.020Z,27.57
2016-10-20T08:28:39.761Z,27.59
2016-10-20T08:29:38.338Z,27.57
2016-10-20T08:30:38.051Z,27.55
2016-10-20T08:31:38.045Z,27.55
2016-10-20T08:32:38.049Z,27.59
2016-10-20T08:33:37.746Z,27.49
2016-10-20T08:34:37.802Z,27.5
2016-10-20T08:35:38.075Z,27.47
2016-10-20T08:36:38.446Z,27.41
2016-10-20T08:37:38.391Z,27.39
2016-10-20T08:38:38.407Z,27.51
2016-10-20T08:39:38.101Z,27.55
2016-10-20T08:40:38.423Z,27.47
2016-10-20T08:41:38.435Z,27.41
2016-10-20T08:42:38.491Z,27.49
2016-10-20T08:43:38.446Z,27.37
2016-10-20T08:44:38.453Z,27.46
2016-10-20T08:45:38.463Z,27.4
2016-10-20T08:46:37.844Z,27.41
2016-10-20T08:47:37.849Z,27.43
2016-10-20T08:48:38.481Z,27.46
2016-10-20T08:49:38.275Z,27.4
2016-10-20T08:50:38.536Z,27.39
2016-10-20T08:51:38.504Z,27.4
2016-10-20T08:52:38.514Z,27.37
2016-10-20T08:53:38.207Z,27.41
2016-10-20T08:54:38.679Z,27.36
2016-10-20T08:55:38.583Z,27.37
2016-10-20T08:56:38.546Z,27.39
2016-10-20T08:57:38.232Z,27.44
2016-10-20T08:58:38.345Z,27.41
2016-10-20T08:59:38.568Z,27.41
2016-10-20T09:00:38.261Z,27.4
2016-10-20T09:01:38.581Z,27.39
2016-10-20T09:02:38.472Z,27.51
2016-10-20T09:03:38.598Z,27.44
2016-10-20T09:04:38.024Z,27.5
2016-10-20T09:05:38.664Z,27.43
2016-10-20T09:06:38.300Z,27.4
2016-10-20T09:07:38.871Z,27.41
2016-10-20T09:08:38.318Z,27.46
2016-10-20T09:09:38.690Z,27.4
2016-10-20T09:10:38.018Z,27.39
2016-10-20T09:11:38.393Z,27.24
2016-10-20T09:12:38.437Z,27.19
2016-10-20T09:13:38.670Z,27.21
2016-10-20T09:14:38.674Z,27.28
2016-10-20T09:15:38.371Z,27.18
2016-10-20T09:16:38.426Z,27.28
2016-10-20T09:17:38.436Z,27.28
2016-10-20T09:18:38.716Z,27.25
2016-10-20T09:19:38.442Z,27.32
2016-10-20T09:20:38.407Z,27.25
2016-10-20T09:21:38.727Z,27.29
2016-10-20T09:22:38.736Z,27.27
2016-10-20T09:23:38.118Z,27.4
2016-10-20T09:24:38.436Z,27.44
2016-10-20T09:25:38.458Z,27.43
2016-10-20T09:26:38.189Z,27.49
2016-10-20T09:27:38.757Z,27.39
2016-10-20T09:28:38.522Z,27.29
2016-10-20T09:29:38.523Z,27.21
2016-10-20T09:30:38.481Z,27.22
2016-10-20T09:31:38.805Z,27.17
2016-10-20T09:32:38.186Z,27.04
2016-10-20T09:33:38.553Z,27.09
2016-10-20T09:34:38.825Z,27.06
2016-10-20T09:35:38.828Z,27.06
2016-10-20T09:36:38.524Z,27.09
2016-10-20T09:37:38.634Z,27.1
2016-10-20T09:38:38.541Z,27.12
2016-10-20T09:39:38.949Z,27.1
2016-10-20T09:40:38.855Z,27.06
2016-10-20T09:41:38.613Z,27.13
2016-10-20T09:42:38.568Z,27.14
2016-10-20T09:43:38.589Z,27.17
2016-10-20T09:44:38.271Z,27.27
2016-10-20T09:45:38.639Z,27.13
2016-10-20T09:46:38.649Z,27.09
2016-10-20T09:47:38.613Z,26.95
2016-10-20T09:48:38.622Z,26.65
2016-10-20T09:49:38.987Z,26.43
2016-10-20T09:50:38.995Z,26.1
2016-10-20T09:51:38.324Z,25.91
2016-10-20T09:52:38.642Z,25.83
2016-10-20T09:53:39.119Z,25.77
2016-10-20T09:54:38.352Z,25.82
2016-10-20T09:55:38.553Z,25.77
2016-10-20T09:56:39.033Z,25.69
2016-10-20T09:57:38.790Z,25.88
2016-10-20T09:58:38.998Z,25.9
2016-10-20T09:59:38.692Z,25.99
2016-10-20T10:00:38.756Z,26.13
2016-10-20T10:01:38.396Z,26.17
2016-10-20T10:02:38.762Z,26.15
2016-10-20T10:03:38.457Z,26.02
2016-10-20T10:04:39.142Z,25.97
2016-10-20T10:05:38.737Z,26.02
2016-10-20T10:06:38.481Z,25.91
2016-10-20T10:07:38.490Z,25.83
2016-10-20T10:08:39.163Z,25.92
2016-10-20T10:09:38.762Z,25.95
2016-10-20T10:10:39.082Z,25.95
2016-10-20T10:11:38.777Z,25.75
2016-10-20T10:12:38.526Z,25.76
2016-10-20T10:13:38.790Z,25.76
2016-10-20T10:14:38.798Z,25.79
2016-10-20T10:15:38.807Z,25.76
2016-10-20T10:16:39.125Z,25.87
2016-10-20T10:17:38.818Z,25.87
2016-10-20T10:18:38.878Z,25.99
2016-10-20T10:19:38.834Z,25.88
2016-10-20T10:20:39.206Z,25.88
2016-10-20T10:21:38.847Z,25.95
2016-10-20T10:22:38.862Z,25.91
2016-10-20T10:23:38.864Z,25.92
2016-10-20T10:24:39.176Z,25.82
2016-10-20T10:25:38.925Z,25.76
2016-10-20T10:26:38.931Z,25.77
2016-10-20T10:27:39.200Z,25.87
2016-10-20T10:28:53.458Z,26.29
2016-10-20T10:29:39.215Z,26.45
2016-10-20T10:30:38.913Z,26.62
2016-10-20T10:31:38.922Z,26.67
2016-10-20T10:32:38.923Z,26.73
2016-10-20T10:33:38.620Z,26.8
2016-10-20T10:34:39.300Z,26.81
2016-10-20T10:35:38.684Z,26.94
2016-10-20T10:36:39.313Z,26.87
2016-10-20T10:37:38.957Z,26.87
2016-10-20T10:38:39.275Z,26.89
2016-10-20T10:39:39.321Z,26.91
2016-10-20T10:40:38.664Z,27.07
2016-10-20T10:41:39.299Z,26.95
2016-10-20T10:42:38.992Z,27.03
2016-10-20T10:43:39.313Z,27
2016-10-20T10:44:39.046Z,27.09
2016-10-20T10:45:39.017Z,27.1
2016-10-20T10:46:39.021Z,27.07
2016-10-20T10:47:39.342Z,27.04
2016-10-20T10:48:39.351Z,27.12
2016-10-20T10:49:39.095Z,27.12
2016-10-20T10:50:39.250Z,27.04
2016-10-20T10:51:38.744Z,27.09
2016-10-20T10:52:39.164Z,27.09
2016-10-20T10:53:39.076Z,26.99
2016-10-20T10:54:39.080Z,27.14
2016-10-20T10:55:39.400Z,27.1
2016-10-20T10:56:39.141Z,27.13
2016-10-20T10:57:39.100Z,27.12
2016-10-20T10:58:38.795Z,27.22
2016-10-20T10:59:39.116Z,27.13
2016-10-20T11:00:38.858Z,27.24
2016-10-20T11:01:39.692Z,27.25
2016-10-20T11:02:38.825Z,27.27
2016-10-20T11:03:38.832Z,27.24
2016-10-20T11:04:39.151Z,27.24
2016-10-20T11:05:38.848Z,27.24
2016-10-20T11:06:39.171Z,27.37
2016-10-20T11:07:39.172Z,27.34
2016-10-20T11:08:38.867Z,27.31
2016-10-20T11:09:39.500Z,27.25
2016-10-20T11:10:38.885Z,27.22
2016-10-20T11:11:39.564Z,27.39
2016-10-20T11:12:39.522Z,27.41
2016-10-20T11:13:39.584Z,27.44
2016-10-20T11:14:39.222Z,27.44
2016-10-20T11:15:39.229Z,27.4
2016-10-20T11:16:39.270Z,27.4
2016-10-20T11:17:39.561Z,27.44
2016-10-20T11:18:39.566Z,27.55
2016-10-20T11:19:39.311Z,27.49
2016-10-20T11:20:39.316Z,27.5
2016-10-20T11:21:39.011Z,27.5
2016-10-20T11:22:39.335Z,27.43
2016-10-20T11:23:38.979Z,27.36
2016-10-20T11:24:39.614Z,27.43
2016-10-20T11:25:39.305Z,27.49
2016-10-20T11:26:39.825Z,27.39
2016-10-20T11:27:39.108Z,27.4
2016-10-20T11:28:39.687Z,27.39
2016-10-20T11:29:39.337Z,27.41
2016-10-20T11:30:39.340Z,27.4
2016-10-20T11:31:39.094Z,27.32
2016-10-20T11:32:39.353Z,27.41
2016-10-20T11:33:39.370Z,27.25
2016-10-20T11:34:39.421Z,27.34
2016-10-20T11:35:39.376Z,27.31
2016-10-20T11:36:39.387Z,27.17
2016-10-20T11:37:39.130Z,27.29
2016-10-20T11:38:39.448Z,27.28
2016-10-20T11:39:39.719Z,27.13
2016-10-20T11:40:40.049Z,27.13
2016-10-20T11:41:39.777Z,27.19
2016-10-20T11:42:39.482Z,27.22
2016-10-20T11:43:39.748Z,27.19
2016-10-20T11:44:39.811Z,27.39
2016-10-20T11:45:39.138Z,27.4
2016-10-20T11:46:39.883Z,27.4
2016-10-20T11:47:39.469Z,27.51
2016-10-20T11:48:39.249Z,27.55
2016-10-20T11:49:39.480Z,27.62
2016-10-20T11:50:39.854Z,27.49
2016-10-20T11:51:40.007Z,27.5
2016-10-20T11:52:39.505Z,27.34
2016-10-20T11:53:39.615Z,27.22
2016-10-20T11:54:39.886Z,27.22
2016-10-20T11:55:40.139Z,27.22
2016-10-20T11:56:39.931Z,27.19
2016-10-20T11:57:39.539Z,27.32
2016-10-20T11:58:39.551Z,27.43
2016-10-20T11:59:39.921Z,27.43
2016-10-20T12:00:39.307Z,27.28
2016-10-20T12:01:39.576Z,27.34
2016-10-20T12:02:39.633Z,27.37
2016-10-20T12:03:39.899Z,27.39
2016-10-20T12:04:39.278Z,27.39
2016-10-20T12:05:39.290Z,27.43
2016-10-20T12:06:39.857Z,27.44
2016-10-20T12:07:39.666Z,27.54
2016-10-20T12:08:40.041Z,27.39
2016-10-20T12:09:39.991Z,27.12
2016-10-20T12:10:39.637Z,26.81
2016-10-20T12:11:39.338Z,26.7
2016-10-20T12:12:39.972Z,26.37
2016-10-20T12:13:39.661Z,26.3
2016-10-20T12:14:39.670Z,26.07
2016-10-20T12:15:39.678Z,26.15
2016-10-20T12:16:40.051Z,26.09
2016-10-20T12:17:39.690Z,25.99
2016-10-20T12:18:40.011Z,25.94
2016-10-20T12:19:39.701Z,25.97
2016-10-20T12:20:39.712Z,25.9
2016-10-20T12:21:40.029Z,25.87
2016-10-20T12:22:39.728Z,25.88
2016-10-20T12:23:40.048Z,25.77
2016-10-20T12:24:39.738Z,25.73
2016-10-20T12:25:40.112Z,25.7
2016-10-20T12:26:40.142Z,25.55
2016-10-20T12:27:40.097Z,25.58
2016-10-20T12:28:39.703Z,25.45
2016-10-20T12:29:39.775Z,25.5
2016-10-20T12:30:39.832Z,25.43
2016-10-20T12:31:40.104Z,25.42
2016-10-20T12:32:40.160Z,25.36
2016-10-20T12:33:40.165Z,25.4
2016-10-20T12:34:40.126Z,25.32
2016-10-20T12:35:40.131Z,25.25
2016-10-20T12:36:39.508Z,25.18
2016-10-20T12:37:39.521Z,25.21
2016-10-20T12:38:39.527Z,25.4
2016-10-20T12:39:39.907Z,25.42
2016-10-20T12:40:39.900Z,25.42
2016-10-20T12:41:39.906Z,25.5
2016-10-20T12:42:39.915Z,25.5
2016-10-20T12:43:39.556Z,25.32
2016-10-20T12:44:39.950Z,25.39
2016-10-20T12:45:39.576Z,25.38
2016-10-20T12:46:40.203Z,25.43
2016-10-20T12:47:39.650Z,25.5
2016-10-20T12:48:40.223Z,25.27
2016-10-20T12:49:39.964Z,25.46
2016-10-20T12:50:39.972Z,25.45
2016-10-20T12:51:40.290Z,25.51
2016-10-20T12:52:40.245Z,25.6
2016-10-20T12:53:39.942Z,25.57
2016-10-20T12:54:39.956Z,25.72
2016-10-20T12:55:40.365Z,25.69
2016-10-20T12:56:40.273Z,25.58